Terminal Aerodrome Forecast
Issued by NWS

Home | Current Version | Previous Version | Text Only | Print | Product List | Glossary On
Versions: 1 2 3 4 5 6 7 8 9 10 11 12 13 14 15
000
FTUS43 KTOP 230849 AAA
TAFMHK
TAF AMD
KMHK 230849Z 2309/2406 18007KT P6SM VCTS SCT150CB
     FM231400 20012KT P6SM FEW250
     FM240200 17007KT P6SM FEW250=

USA.gov is the U.S. government's official web portal to all federal, state and local government web resources and services.